Pagina principale
METAR-TAF:

METAR-TAF

Aeroporti :

Aeroporto di Lubiana-Brnik

Lubiana, Slovenia

latitudine: 46-13N, longitudine: 014-29E, altezza: 385 m

Osservazione

Il bollettino è stato emesso 37 minuti fa, alle 23:30 UTC
Vento 1 kt da direzioni variabili
Temperature 12°C
Umidità 88%
Pressione 1021 hPa
Visibilità 10 km o più
Poco nuvoloso ad un'altezza di 4000 ft

METAR: LJLJ 142330Z VRB01KT 9999 FEW040 12/10 Q1021 NOSIG

Ora: 02:07 (00:07 UTC)

Previsione

Il bollettino è stato emesso 1 ora e 7 minuti fa, alle 23:00 UTC
Previsione valida dal 15 alle 00 UTC al 15 alle 24 UTC
Vento 2 kt da direzioni variabili
Visibilità 10 km o più
Poco nuvoloso ad un'altezza di 4000 ft

TAF: LJLJ 142300Z 1500/1524 VRB02KT 9999 FEW040

Osservazioni e previsioni meteorologiche di più di 4000 aeroporti (messaggi METAR e TAF).

Le stazioni disponibili sono rappresentate dai dischi gialli e rossi sulla carta.

Puntare il mouse per vedere il nome della stazione.

Clicca sopra per visualizzare le osservazioni e previsioni meteorologiche.

Per cambiare la mappa : fare clic sui pulsanti verdi con una croce nera per ingrandire, il pulsante verde con un trattino per diminuire, o sulla freccia verde per le mappe adiacenti.


METAR-TAF: